sensor_id;sensor_type;location;lat;lon;timestamp;pressure;altitude;pressure_sealevel;temperature;humidity
7906;BME280;13291;40.472;-3.878;2022-10-16T00:00:35;53072.00;;;-139.96;37.24
7906;BME280;13291;40.472;-3.878;2022-10-16T00:03:05;53104.00;;;-139.96;37.43
7906;BME280;13291;40.472;-3.878;2022-10-16T00:05:33;53086.00;;;-139.96;37.45
7906;BME280;13291;40.472;-3.878;2022-10-16T00:08:04;53092.00;;;-139.96;36.99
7906;BME280;13291;40.472;-3.878;2022-10-16T00:10:31;53068.00;;;-139.96;37.08
7906;BME280;13291;40.472;-3.878;2022-10-16T00:12:58;53090.00;;;-139.96;37.25
7906;BME280;13291;40.472;-3.878;2022-10-16T00:15:25;53082.00;;;-139.96;37.43
7906;BME280;13291;40.472;-3.878;2022-10-16T00:17:51;53050.00;;;-139.96;37.01
7906;BME280;13291;40.472;-3.878;2022-10-16T00:20:20;53086.00;;;-139.96;36.88
7906;BME280;13291;40.472;-3.878;2022-10-16T00:22:47;53096.00;;;-139.96;37.16
7906;BME280;13291;40.472;-3.878;2022-10-16T00:25:13;53056.00;;;-139.96;36.75
7906;BME280;13291;40.472;-3.878;2022-10-16T00:27:40;53080.00;;;-139.96;37.37
7906;BME280;13291;40.472;-3.878;2022-10-16T00:30:08;53098.00;;;-139.96;37.83
7906;BME280;13291;40.472;-3.878;2022-10-16T00:32:35;53074.00;;;-139.96;37.75
7906;BME280;13291;40.472;-3.878;2022-10-16T00:35:02;53094.00;;;-139.96;37.55
7906;BME280;13291;40.472;-3.878;2022-10-16T00:37:30;53076.00;;;-139.96;37.52
7906;BME280;13291;40.472;-3.878;2022-10-16T00:39:57;53086.00;;;-139.96;37.27
7906;BME280;13291;40.472;-3.878;2022-10-16T00:42:24;53108.00;;;-139.96;38.03
7906;BME280;13291;40.472;-3.878;2022-10-16T00:44:52;53100.00;;;-139.96;38.13
7906;BME280;13291;40.472;-3.878;2022-10-16T00:47:25;53082.00;;;-139.96;37.96
7906;BME280;13291;40.472;-3.878;2022-10-16T00:49:56;53106.00;;;-139.96;37.82
7906;BME280;13291;40.472;-3.878;2022-10-16T00:52:25;53076.00;;;-139.96;37.53
7906;BME280;13291;40.472;-3.878;2022-10-16T00:54:54;53070.00;;;-139.96;38.16
7906;BME280;13291;40.472;-3.878;2022-10-16T00:57:22;53110.00;;;-139.96;37.59
7906;BME280;13291;40.472;-3.878;2022-10-16T00:59:48;53094.00;;;-139.96;37.87
7906;BME280;13291;40.472;-3.878;2022-10-16T01:02:16;53090.00;;;-139.96;37.78
7906;BME280;13291;40.472;-3.878;2022-10-16T01:04:45;53080.00;;;-139.96;37.30
7906;BME280;13291;40.472;-3.878;2022-10-16T01:07:18;53114.00;;;-139.96;37.62
7906;BME280;13291;40.472;-3.878;2022-10-16T01:10:00;53074.00;;;-139.96;38.21
7906;BME280;13291;40.472;-3.878;2022-10-16T01:12:36;53104.00;;;-139.96;38.67
7906;BME280;13291;40.472;-3.878;2022-10-16T01:15:10;53082.00;;;-139.96;38.54
7906;BME280;13291;40.472;-3.878;2022-10-16T01:17:42;53094.00;;;-139.96;38.57
7906;BME280;13291;40.472;-3.878;2022-10-16T01:20:17;53106.00;;;-139.96;38.46
7906;BME280;13291;40.472;-3.878;2022-10-16T01:26:20;53094.00;;;-139.96;38.66
7906;BME280;13291;40.472;-3.878;2022-10-16T01:29:02;53116.00;;;-139.96;38.69
7906;BME280;13291;40.472;-3.878;2022-10-16T01:31:33;53100.00;;;-139.96;38.76
7906;BME280;13291;40.472;-3.878;2022-10-16T01:34:05;53130.00;;;-139.96;39.00
7906;BME280;13291;40.472;-3.878;2022-10-16T01:36:37;53092.00;;;-139.96;38.57
7906;BME280;13291;40.472;-3.878;2022-10-16T01:39:08;53082.00;;;-139.96;38.86
7906;BME280;13291;40.472;-3.878;2022-10-16T01:41:39;53114.00;;;-139.96;39.07
7906;BME280;13291;40.472;-3.878;2022-10-16T01:44:11;53104.00;;;-139.96;38.94
7906;BME280;13291;40.472;-3.878;2022-10-16T01:46:41;53086.00;;;-139.96;38.86
7906;BME280;13291;40.472;-3.878;2022-10-16T01:49:10;53086.00;;;-139.96;38.90
7906;BME280;13291;40.472;-3.878;2022-10-16T01:51:39;53114.00;;;-139.96;38.98
7906;BME280;13291;40.472;-3.878;2022-10-16T01:54:08;53100.00;;;-139.96;39.07
7906;BME280;13291;40.472;-3.878;2022-10-16T01:56:36;53126.00;;;-139.96;38.71
7906;BME280;13291;40.472;-3.878;2022-10-16T01:59:06;53098.00;;;-139.96;38.64
7906;BME280;13291;40.472;-3.878;2022-10-16T02:01:36;53098.00;;;-139.96;37.71
7906;BME280;13291;40.472;-3.878;2022-10-16T02:04:09;53122.00;;;-139.96;38.40
7906;BME280;13291;40.472;-3.878;2022-10-16T02:06:38;53122.00;;;-139.96;38.18
7906;BME280;13291;40.472;-3.878;2022-10-16T02:09:05;53126.00;;;-139.96;38.39
7906;BME280;13291;40.472;-3.878;2022-10-16T02:11:32;53090.00;;;-139.96;38.98
7906;BME280;13291;40.472;-3.878;2022-10-16T02:14:02;53088.00;;;-139.96;38.78
7906;BME280;13291;40.472;-3.878;2022-10-16T02:16:37;53124.00;;;-139.96;39.00
7906;BME280;13291;40.472;-3.878;2022-10-16T02:19:05;53090.00;;;-139.96;38.94
7906;BME280;13291;40.472;-3.878;2022-10-16T02:21:36;53106.00;;;-139.96;39.14
7906;BME280;13291;40.472;-3.878;2022-10-16T02:24:11;53110.00;;;-139.96;39.12
7906;BME280;13291;40.472;-3.878;2022-10-16T02:26:45;53116.00;;;-139.96;38.78
7906;BME280;13291;40.472;-3.878;2022-10-16T02:29:20;53090.00;;;-139.96;38.39
7906;BME280;13291;40.472;-3.878;2022-10-16T02:31:55;53108.00;;;-139.96;38.74
7906;BME280;13291;40.472;-3.878;2022-10-16T02:34:24;53084.00;;;-139.96;38.95
7906;BME280;13291;40.472;-3.878;2022-10-16T02:36:52;53140.00;;;-139.96;38.78
7906;BME280;13291;40.472;-3.878;2022-10-16T02:39:20;53104.00;;;-139.96;38.88
7906;BME280;13291;40.472;-3.878;2022-10-16T02:41:47;53104.00;;;-139.96;38.68
7906;BME280;13291;40.472;-3.878;2022-10-16T02:44:14;53098.00;;;-139.96;39.21
7906;BME280;13291;40.472;-3.878;2022-10-16T02:46:41;53122.00;;;-139.96;39.19
7906;BME280;13291;40.472;-3.878;2022-10-16T02:49:09;53114.00;;;-139.96;39.00
7906;BME280;13291;40.472;-3.878;2022-10-16T02:51:36;53112.00;;;-139.96;38.71
7906;BME280;13291;40.472;-3.878;2022-10-16T02:54:03;53102.00;;;-139.96;38.93
7906;BME280;13291;40.472;-3.878;2022-10-16T02:56:30;53100.00;;;-139.96;38.93
7906;BME280;13291;40.472;-3.878;2022-10-16T02:58:57;53126.00;;;-139.96;38.96
7906;BME280;13291;40.472;-3.878;2022-10-16T03:01:24;53102.00;;;-139.96;38.85
7906;BME280;13291;40.472;-3.878;2022-10-16T03:03:51;53122.00;;;-139.96;38.88
7906;BME280;13291;40.472;-3.878;2022-10-16T03:06:19;53122.00;;;-139.96;38.90
7906;BME280;13291;40.472;-3.878;2022-10-16T03:08:46;53078.00;;;-139.96;39.24
7906;BME280;13291;40.472;-3.878;2022-10-16T03:11:13;53126.00;;;-139.96;38.88
7906;BME280;13291;40.472;-3.878;2022-10-16T03:13:39;53124.00;;;-139.96;38.98
7906;BME280;13291;40.472;-3.878;2022-10-16T03:16:06;53118.00;;;-139.96;38.83
7906;BME280;13291;40.472;-3.878;2022-10-16T03:18:33;53122.00;;;-139.96;38.96
7906;BME280;13291;40.472;-3.878;2022-10-16T03:21:00;53106.00;;;-139.96;39.06
7906;BME280;13291;40.472;-3.878;2022-10-16T03:23:28;53112.00;;;-139.96;38.80
7906;BME280;13291;40.472;-3.878;2022-10-16T03:25:55;53124.00;;;-139.96;39.20
7906;BME280;13291;40.472;-3.878;2022-10-16T03:28:22;53122.00;;;-139.96;39.33
7906;BME280;13291;40.472;-3.878;2022-10-16T03:30:49;53134.00;;;-139.96;39.60
7906;BME280;13291;40.472;-3.878;2022-10-16T03:33:16;53144.00;;;-139.96;39.42
7906;BME280;13291;40.472;-3.878;2022-10-16T03:35:43;53124.00;;;-139.96;39.64
7906;BME280;13291;40.472;-3.878;2022-10-16T03:38:17;53136.00;;;-139.96;39.59
7906;BME280;13291;40.472;-3.878;2022-10-16T03:40:45;53094.00;;;-139.96;39.80
7906;BME280;13291;40.472;-3.878;2022-10-16T03:43:12;53134.00;;;-139.96;39.61
7906;BME280;13291;40.472;-3.878;2022-10-16T03:45:38;53154.00;;;-139.96;39.43
7906;BME280;13291;40.472;-3.878;2022-10-16T03:48:05;53112.00;;;-139.96;39.85
7906;BME280;13291;40.472;-3.878;2022-10-16T03:50:32;53156.03;;;-139.96;39.70
7906;BME280;13291;40.472;-3.878;2022-10-16T03:52:59;53158.03;;;-139.96;40.15
7906;BME280;13291;40.472;-3.878;2022-10-16T03:55:26;53142.00;;;-139.96;40.19
7906;BME280;13291;40.472;-3.878;2022-10-16T03:57:54;53146.00;;;-139.96;39.97
7906;BME280;13291;40.472;-3.878;2022-10-16T04:00:21;53138.00;;;-139.96;40.17
7906;BME280;13291;40.472;-3.878;2022-10-16T04:02:48;53112.00;;;-139.96;40.67
7906;BME280;13291;40.472;-3.878;2022-10-16T04:05:15;53142.00;;;-139.96;40.34
7906;BME280;13291;40.472;-3.878;2022-10-16T04:07:42;53142.00;;;-139.96;40.48
7906;BME280;13291;40.472;-3.878;2022-10-16T04:10:09;53136.00;;;-139.96;40.64
7906;BME280;13291;40.472;-3.878;2022-10-16T04:12:35;53140.00;;;-139.96;40.09
7906;BME280;13291;40.472;-3.878;2022-10-16T04:15:04;53122.00;;;-139.96;40.40
7906;BME280;13291;40.472;-3.878;2022-10-16T04:17:31;53094.00;;;-139.96;40.77
7906;BME280;13291;40.472;-3.878;2022-10-16T04:19:58;53150.00;;;-139.96;40.39
7906;BME280;13291;40.472;-3.878;2022-10-16T04:22:25;53118.00;;;-139.96;40.33
7906;BME280;13291;40.472;-3.878;2022-10-16T04:24:51;53108.00;;;-139.96;40.69
7906;BME280;13291;40.472;-3.878;2022-10-16T04:27:18;53130.00;;;-139.96;40.67
7906;BME280;13291;40.472;-3.878;2022-10-16T04:29:45;53100.00;;;-139.96;39.88
7906;BME280;13291;40.472;-3.878;2022-10-16T04:32:13;53108.00;;;-139.96;40.60
7906;BME280;13291;40.472;-3.878;2022-10-16T04:34:40;53090.00;;;-139.96;40.50
7906;BME280;13291;40.472;-3.878;2022-10-16T04:37:07;53116.00;;;-139.96;40.78
7906;BME280;13291;40.472;-3.878;2022-10-16T04:39:34;53146.00;;;-139.96;40.55
7906;BME280;13291;40.472;-3.878;2022-10-16T04:42:00;53110.00;;;-139.96;40.69
7906;BME280;13291;40.472;-3.878;2022-10-16T04:44:28;53120.00;;;-139.96;40.95
7906;BME280;13291;40.472;-3.878;2022-10-16T04:46:54;53142.00;;;-139.96;41.12
7906;BME280;13291;40.472;-3.878;2022-10-16T04:49:23;53132.00;;;-139.96;40.79
7906;BME280;13291;40.472;-3.878;2022-10-16T04:51:49;53138.00;;;-139.96;41.55
7906;BME280;13291;40.472;-3.878;2022-10-16T04:54:16;53136.00;;;-139.96;41.24
7906;BME280;13291;40.472;-3.878;2022-10-16T04:56:43;53138.00;;;-139.96;41.57
7906;BME280;13291;40.472;-3.878;2022-10-16T04:59:13;53148.00;;;-139.96;41.26
7906;BME280;13291;40.472;-3.878;2022-10-16T05:01:40;53124.00;;;-139.96;41.12
7906;BME280;13291;40.472;-3.878;2022-10-16T05:04:07;53134.00;;;-139.96;41.73
7906;BME280;13291;40.472;-3.878;2022-10-16T05:06:35;53138.00;;;-139.96;41.55
7906;BME280;13291;40.472;-3.878;2022-10-16T05:09:04;53144.00;;;-139.96;41.74
7906;BME280;13291;40.472;-3.878;2022-10-16T05:11:30;53118.00;;;-139.96;41.48
7906;BME280;13291;40.472;-3.878;2022-10-16T05:13:57;53150.00;;;-139.96;41.33
7906;BME280;13291;40.472;-3.878;2022-10-16T05:16:24;53130.00;;;-139.96;41.52
7906;BME280;13291;40.472;-3.878;2022-10-16T05:18:51;53134.00;;;-139.96;41.82
7906;BME280;13291;40.472;-3.878;2022-10-16T05:21:19;53166.03;;;-139.96;41.78
7906;BME280;13291;40.472;-3.878;2022-10-16T05:23:48;53174.03;;;-139.96;41.99
7906;BME280;13291;40.472;-3.878;2022-10-16T05:26:15;53154.00;;;-139.96;42.17
7906;BME280;13291;40.472;-3.878;2022-10-16T05:28:42;53132.00;;;-139.96;42.30
7906;BME280;13291;40.472;-3.878;2022-10-16T05:31:09;53166.03;;;-139.96;42.49
7906;BME280;13291;40.472;-3.878;2022-10-16T05:33:36;53114.00;;;-139.96;42.22
7906;BME280;13291;40.472;-3.878;2022-10-16T05:36:04;53158.03;;;-139.96;42.71
7906;BME280;13291;40.472;-3.878;2022-10-16T05:38:32;53162.03;;;-139.96;42.45
7906;BME280;13291;40.472;-3.878;2022-10-16T05:41:01;53164.03;;;-139.96;42.99
7906;BME280;13291;40.472;-3.878;2022-10-16T05:43:28;53134.00;;;-139.96;42.74
7906;BME280;13291;40.472;-3.878;2022-10-16T05:45:56;53154.00;;;-139.96;42.88
7906;BME280;13291;40.472;-3.878;2022-10-16T05:48:23;53164.03;;;-139.96;43.24
7906;BME280;13291;40.472;-3.878;2022-10-16T05:50:56;53162.03;;;-139.96;43.18
7906;BME280;13291;40.472;-3.878;2022-10-16T05:53:23;53166.03;;;-139.96;43.42
7906;BME280;13291;40.472;-3.878;2022-10-16T05:55:53;53152.00;;;-139.96;43.19
7906;BME280;13291;40.472;-3.878;2022-10-16T05:58:22;53182.03;;;-139.96;43.12
7906;BME280;13291;40.472;-3.878;2022-10-16T06:00:56;53150.00;;;-139.96;43.48
7906;BME280;13291;40.472;-3.878;2022-10-16T06:03:23;53130.00;;;-139.96;43.33
7906;BME280;13291;40.472;-3.878;2022-10-16T06:05:50;53170.03;;;-139.96;43.69
7906;BME280;13291;40.472;-3.878;2022-10-16T06:08:17;53136.00;;;-139.96;44.05
7906;BME280;13291;40.472;-3.878;2022-10-16T06:10:44;53150.00;;;-139.96;43.87
7906;BME280;13291;40.472;-3.878;2022-10-16T06:13:12;53158.03;;;-139.96;44.98
7906;BME280;13291;40.472;-3.878;2022-10-16T06:15:41;53158.03;;;-139.96;44.44
7906;BME280;13291;40.472;-3.878;2022-10-16T06:18:08;53162.03;;;-139.96;44.96
7906;BME280;13291;40.472;-3.878;2022-10-16T06:20:36;53152.00;;;-139.96;44.54
7906;BME280;13291;40.472;-3.878;2022-10-16T06:23:03;53162.03;;;-139.96;44.95
7906;BME280;13291;40.472;-3.878;2022-10-16T06:25:30;53102.00;;;-139.96;44.86
7906;BME280;13291;40.472;-3.878;2022-10-16T06:27:57;53156.03;;;-139.96;45.38
7906;BME280;13291;40.472;-3.878;2022-10-16T06:30:24;53138.00;;;-139.96;45.42
7906;BME280;13291;40.472;-3.878;2022-10-16T06:32:52;53150.00;;;-139.96;45.36
7906;BME280;13291;40.472;-3.878;2022-10-16T06:35:19;53146.00;;;-139.96;45.57
7906;BME280;13291;40.472;-3.878;2022-10-16T06:37:46;53152.00;;;-139.96;45.17
7906;BME280;13291;40.472;-3.878;2022-10-16T06:40:13;53180.03;;;-139.96;45.62
7906;BME280;13291;40.472;-3.878;2022-10-16T06:42:40;53166.03;;;-139.96;45.44
7906;BME280;13291;40.472;-3.878;2022-10-16T06:45:08;53166.03;;;-139.96;44.81
7906;BME280;13291;40.472;-3.878;2022-10-16T06:47:35;53126.00;;;-139.96;45.31
7906;BME280;13291;40.472;-3.878;2022-10-16T06:50:04;53170.03;;;-139.96;45.56
7906;BME280;13291;40.472;-3.878;2022-10-16T06:52:32;53170.03;;;-139.96;45.43
7906;BME280;13291;40.472;-3.878;2022-10-16T06:54:59;53134.00;;;-139.96;44.75
7906;BME280;13291;40.472;-3.878;2022-10-16T06:57:26;53152.00;;;-139.96;44.65
7906;BME280;13291;40.472;-3.878;2022-10-16T06:59:53;53182.03;;;-139.96;44.81
7906;BME280;13291;40.472;-3.878;2022-10-16T07:02:19;53168.03;;;-139.96;44.77
7906;BME280;13291;40.472;-3.878;2022-10-16T07:04:46;53170.03;;;-139.96;45.33
7906;BME280;13291;40.472;-3.878;2022-10-16T07:07:15;53140.00;;;-139.96;45.44
7906;BME280;13291;40.472;-3.878;2022-10-16T07:09:41;53166.03;;;-139.96;45.53
7906;BME280;13291;40.472;-3.878;2022-10-16T07:12:08;53160.03;;;-139.96;45.83
7906;BME280;13291;40.472;-3.878;2022-10-16T07:14:35;53152.00;;;-139.96;45.34
7906;BME280;13291;40.472;-3.878;2022-10-16T07:17:02;53174.03;;;-139.96;45.42
7906;BME280;13291;40.472;-3.878;2022-10-16T07:19:29;53158.03;;;-139.96;45.69
7906;BME280;13291;40.472;-3.878;2022-10-16T07:21:56;53174.03;;;-139.96;46.26
7906;BME280;13291;40.472;-3.878;2022-10-16T07:24:24;53166.03;;;-139.96;46.22
7906;BME280;13291;40.472;-3.878;2022-10-16T07:26:51;53156.03;;;-139.96;46.21
7906;BME280;13291;40.472;-3.878;2022-10-16T07:29:19;53154.00;;;-139.96;46.00
7906;BME280;13291;40.472;-3.878;2022-10-16T07:31:47;53142.00;;;-139.96;46.25
7906;BME280;13291;40.472;-3.878;2022-10-16T07:34:16;53186.03;;;-139.96;45.65
7906;BME280;13291;40.472;-3.878;2022-10-16T07:36:43;53166.03;;;-139.96;46.20
7906;BME280;13291;40.472;-3.878;2022-10-16T07:39:10;53154.00;;;-139.96;46.00
7906;BME280;13291;40.472;-3.878;2022-10-16T07:41:38;53176.03;;;-139.96;46.78
7906;BME280;13291;40.472;-3.878;2022-10-16T07:44:05;53126.00;;;-139.96;45.47
7906;BME280;13291;40.472;-3.878;2022-10-16T07:46:32;53114.00;;;-139.96;45.28
7906;BME280;13291;40.472;-3.878;2022-10-16T07:48:59;53122.00;;;-139.96;45.83
7906;BME280;13291;40.472;-3.878;2022-10-16T07:51:26;53152.00;;;-139.96;45.69
7906;BME280;13291;40.472;-3.878;2022-10-16T07:53:53;53140.00;;;-139.96;45.06
7906;BME280;13291;40.472;-3.878;2022-10-16T07:56:21;53126.00;;;-139.96;45.22
7906;BME280;13291;40.472;-3.878;2022-10-16T07:58:50;53106.00;;;-139.96;44.95
7906;BME280;13291;40.472;-3.878;2022-10-16T08:01:17;53110.00;;;-139.96;44.76
7906;BME280;13291;40.472;-3.878;2022-10-16T08:03:46;53076.00;;;-139.96;44.21
7906;BME280;13291;40.472;-3.878;2022-10-16T08:06:13;53114.00;;;-139.96;44.50
7906;BME280;13291;40.472;-3.878;2022-10-16T08:08:40;53098.00;;;-139.96;44.05
7906;BME280;13291;40.472;-3.878;2022-10-16T08:11:07;53158.03;;;-139.96;43.76
7906;BME280;13291;40.472;-3.878;2022-10-16T08:13:34;53106.00;;;-139.96;43.40
7906;BME280;13291;40.472;-3.878;2022-10-16T08:16:03;53122.00;;;-139.96;43.26
7906;BME280;13291;40.472;-3.878;2022-10-16T08:18:33;53116.00;;;-139.96;43.46
7906;BME280;13291;40.472;-3.878;2022-10-16T08:21:01;53112.00;;;-139.96;43.46
7906;BME280;13291;40.472;-3.878;2022-10-16T08:23:28;53110.00;;;-139.96;42.95
7906;BME280;13291;40.472;-3.878;2022-10-16T08:26:01;53090.00;;;-139.96;42.74
7906;BME280;13291;40.472;-3.878;2022-10-16T08:28:28;53112.00;;;-139.96;42.50
7906;BME280;13291;40.472;-3.878;2022-10-16T08:30:55;53138.00;;;-139.96;42.50
7906;BME280;13291;40.472;-3.878;2022-10-16T08:33:23;53124.00;;;-139.96;41.89
7906;BME280;13291;40.472;-3.878;2022-10-16T08:35:51;53054.00;;;-139.96;41.76
7906;BME280;13291;40.472;-3.878;2022-10-16T08:38:19;53082.00;;;-139.96;41.92
7906;BME280;13291;40.472;-3.878;2022-10-16T08:40:46;53088.00;;;-139.96;41.55
7906;BME280;13291;40.472;-3.878;2022-10-16T08:46:22;53090.00;;;-139.96;40.73
7906;BME280;13291;40.472;-3.878;2022-10-16T08:48:54;53076.00;;;-139.96;40.88
7906;BME280;13291;40.472;-3.878;2022-10-16T08:51:24;53066.00;;;-139.96;40.72
7906;BME280;13291;40.472;-3.878;2022-10-16T08:53:55;53090.00;;;-139.96;40.46
7906;BME280;13291;40.472;-3.878;2022-10-16T08:56:23;53056.00;;;-139.96;40.70
7906;BME280;13291;40.472;-3.878;2022-10-16T08:58:52;53092.00;;;-139.96;40.79
7906;BME280;13291;40.472;-3.878;2022-10-16T09:01:21;53058.00;;;-139.96;40.68
7906;BME280;13291;40.472;-3.878;2022-10-16T09:03:58;53108.00;;;-139.96;40.31
7906;BME280;13291;40.472;-3.878;2022-10-16T09:06:38;53054.00;;;-139.96;39.87
7906;BME280;13291;40.472;-3.878;2022-10-16T09:09:32;53074.00;;;-139.96;40.27
7906;BME280;13291;40.472;-3.878;2022-10-16T09:12:09;53076.00;;;-139.96;40.43
7906;BME280;13291;40.472;-3.878;2022-10-16T09:14:53;53050.00;;;-139.96;40.08
7906;BME280;13291;40.472;-3.878;2022-10-16T09:17:32;53044.00;;;-139.96;40.29
7906;BME280;13291;40.472;-3.878;2022-10-16T09:20:18;53022.00;;;-139.96;39.59
7906;BME280;13291;40.472;-3.878;2022-10-16T09:22:46;53078.00;;;-139.96;39.87
7906;BME280;13291;40.472;-3.878;2022-10-16T09:25:15;53042.00;;;-139.96;39.91
7906;BME280;13291;40.472;-3.878;2022-10-16T09:27:45;53068.00;;;-139.96;39.88
7906;BME280;13291;40.472;-3.878;2022-10-16T09:30:16;53062.00;;;-139.96;39.44
7906;BME280;13291;40.472;-3.878;2022-10-16T09:32:45;53070.00;;;-139.96;39.46
7906;BME280;13291;40.472;-3.878;2022-10-16T09:35:17;53070.00;;;-139.96;40.16
7906;BME280;13291;40.472;-3.878;2022-10-16T09:37:47;53090.00;;;-139.96;40.53
7906;BME280;13291;40.472;-3.878;2022-10-16T09:40:25;53038.00;;;-139.96;40.54
7906;BME280;13291;40.472;-3.878;2022-10-16T09:42:57;53042.00;;;-139.96;39.95
7906;BME280;13291;40.472;-3.878;2022-10-16T09:45:27;53056.00;;;-139.96;40.11
7906;BME280;13291;40.472;-3.878;2022-10-16T09:47:54;53046.00;;;-139.96;40.07
7906;BME280;13291;40.472;-3.878;2022-10-16T09:50:24;53070.00;;;-139.96;40.06
7906;BME280;13291;40.472;-3.878;2022-10-16T09:53:03;53066.00;;;-139.96;40.26
7906;BME280;13291;40.472;-3.878;2022-10-16T09:55:30;53060.00;;;-139.96;40.29
7906;BME280;13291;40.472;-3.878;2022-10-16T09:57:57;53050.00;;;-139.96;40.45
7906;BME280;13291;40.472;-3.878;2022-10-16T10:00:24;53054.00;;;-139.96;40.03
7906;BME280;13291;40.472;-3.878;2022-10-16T10:02:52;53034.00;;;-139.96;39.93
7906;BME280;13291;40.472;-3.878;2022-10-16T10:05:23;53066.00;;;-139.96;39.95
7906;BME280;13291;40.472;-3.878;2022-10-16T10:07:56;53005.97;;;-139.96;39.85
7906;BME280;13291;40.472;-3.878;2022-10-16T10:10:25;53046.00;;;-139.96;39.62
7906;BME280;13291;40.472;-3.878;2022-10-16T10:12:53;53026.00;;;-139.96;39.63
7906;BME280;13291;40.472;-3.878;2022-10-16T10:15:21;53046.00;;;-139.96;39.16
7906;BME280;13291;40.472;-3.878;2022-10-16T10:17:50;53022.00;;;-139.96;39.33
7906;BME280;13291;40.472;-3.878;2022-10-16T10:20:27;53009.97;;;-139.96;39.38
7906;BME280;13291;40.472;-3.878;2022-10-16T10:22:56;53040.00;;;-139.96;39.66
7906;BME280;13291;40.472;-3.878;2022-10-16T10:25:33;53028.00;;;-139.96;39.21
7906;BME280;13291;40.472;-3.878;2022-10-16T10:28:15;53038.00;;;-139.96;39.43
7906;BME280;13291;40.472;-3.878;2022-10-16T10:30:51;53016.00;;;-139.96;39.47
7906;BME280;13291;40.472;-3.878;2022-10-16T10:33:25;53040.00;;;-139.96;39.39
7906;BME280;13291;40.472;-3.878;2022-10-16T10:36:03;53034.00;;;-139.96;38.69
7906;BME280;13291;40.472;-3.878;2022-10-16T10:38:41;53032.00;;;-139.96;39.51
7906;BME280;13291;40.472;-3.878;2022-10-16T10:44:07;53026.00;;;-139.96;39.47
7906;BME280;13291;40.472;-3.878;2022-10-16T10:46:41;53032.00;;;-139.96;40.05
7906;BME280;13291;40.472;-3.878;2022-10-16T10:49:32;53048.00;;;-139.96;39.93
7906;BME280;13291;40.472;-3.878;2022-10-16T10:52:27;53048.00;;;-139.96;39.97
7906;BME280;13291;40.472;-3.878;2022-10-16T10:55:10;53062.00;;;-139.96;39.83
7906;BME280;13291;40.472;-3.878;2022-10-16T10:57:46;53030.00;;;-139.96;39.88
7906;BME280;13291;40.472;-3.878;2022-10-16T11:00:25;53028.00;;;-139.96;39.95
7906;BME280;13291;40.472;-3.878;2022-10-16T11:03:02;53022.00;;;-139.96;40.12
7906;BME280;13291;40.472;-3.878;2022-10-16T11:05:41;53036.00;;;-139.96;39.54
7906;BME280;13291;40.472;-3.878;2022-10-16T11:08:14;53038.00;;;-139.96;39.83
7906;BME280;13291;40.472;-3.878;2022-10-16T11:10:49;53012.00;;;-139.96;39.32
7906;BME280;13291;40.472;-3.878;2022-10-16T11:13:24;52989.97;;;-139.96;39.74
7906;BME280;13291;40.472;-3.878;2022-10-16T11:15:57;53026.00;;;-139.96;39.04
7906;BME280;13291;40.472;-3.878;2022-10-16T11:18:29;53032.00;;;-139.96;39.64
7906;BME280;13291;40.472;-3.878;2022-10-16T11:21:02;53042.00;;;-139.96;39.85
7906;BME280;13291;40.472;-3.878;2022-10-16T11:23:38;53014.00;;;-139.96;39.86
7906;BME280;13291;40.472;-3.878;2022-10-16T11:26:15;53048.00;;;-139.96;38.75
7906;BME280;13291;40.472;-3.878;2022-10-16T11:28:45;53024.00;;;-139.96;38.97
7906;BME280;13291;40.472;-3.878;2022-10-16T11:31:19;52991.97;;;-139.96;37.32
7906;BME280;13291;40.472;-3.878;2022-10-16T11:33:54;52999.97;;;-139.96;36.89
7906;BME280;13291;40.472;-3.878;2022-10-16T11:36:28;53036.00;;;-139.96;36.97
7906;BME280;13291;40.472;-3.878;2022-10-16T11:39:02;53016.00;;;-139.96;37.84
7906;BME280;13291;40.472;-3.878;2022-10-16T11:41:35;53005.97;;;-139.96;37.41
7906;BME280;13291;40.472;-3.878;2022-10-16T11:44:14;53022.00;;;-139.96;37.91
7906;BME280;13291;40.472;-3.878;2022-10-16T11:46:49;53066.00;;;-139.96;37.43
7906;BME280;13291;40.472;-3.878;2022-10-16T11:49:21;53018.00;;;-139.96;37.69
7906;BME280;13291;40.472;-3.878;2022-10-16T11:51:55;53040.00;;;-139.96;38.10
7906;BME280;13291;40.472;-3.878;2022-10-16T11:54:29;53060.00;;;-139.96;38.91
7906;BME280;13291;40.472;-3.878;2022-10-16T11:57:02;53042.00;;;-139.96;38.50
7906;BME280;13291;40.472;-3.878;2022-10-16T11:59:41;53038.00;;;-139.96;38.20
7906;BME280;13291;40.472;-3.878;2022-10-16T12:02:34;53016.00;;;-139.96;37.85
7906;BME280;13291;40.472;-3.878;2022-10-16T12:05:12;53024.00;;;-139.96;37.54
7906;BME280;13291;40.472;-3.878;2022-10-16T12:07:47;53050.00;;;-139.96;37.51
7906;BME280;13291;40.472;-3.878;2022-10-16T12:10:23;53030.00;;;-139.96;38.39
7906;BME280;13291;40.472;-3.878;2022-10-16T12:12:50;53018.00;;;-139.96;38.11
7906;BME280;13291;40.472;-3.878;2022-10-16T12:15:23;53032.00;;;-139.96;38.50
7906;BME280;13291;40.472;-3.878;2022-10-16T12:17:50;53014.00;;;-139.96;37.59
7906;BME280;13291;40.472;-3.878;2022-10-16T12:20:27;53048.00;;;-139.96;36.82
7906;BME280;13291;40.472;-3.878;2022-10-16T12:22:57;53054.00;;;-139.96;38.54
7906;BME280;13291;40.472;-3.878;2022-10-16T12:25:27;53044.00;;;-139.96;38.52
7906;BME280;13291;40.472;-3.878;2022-10-16T12:28:00;53050.00;;;-139.96;38.08
7906;BME280;13291;40.472;-3.878;2022-10-16T12:30:30;53016.00;;;-139.96;37.95
7906;BME280;13291;40.472;-3.878;2022-10-16T12:32:59;52991.97;;;-139.96;38.12
7906;BME280;13291;40.472;-3.878;2022-10-16T12:35:28;53016.00;;;-139.96;36.91
7906;BME280;13291;40.472;-3.878;2022-10-16T12:38:05;53009.97;;;-139.96;37.38
7906;BME280;13291;40.472;-3.878;2022-10-16T12:40:37;53020.00;;;-139.96;37.79
7906;BME280;13291;40.472;-3.878;2022-10-16T12:43:26;53018.00;;;-139.96;38.01
7906;BME280;13291;40.472;-3.878;2022-10-16T12:46:03;53036.00;;;-139.96;38.08
7906;BME280;13291;40.472;-3.878;2022-10-16T12:48:30;53028.00;;;-139.96;37.37
7906;BME280;13291;40.472;-3.878;2022-10-16T12:50:57;53050.00;;;-139.96;37.86
7906;BME280;13291;40.472;-3.878;2022-10-16T12:53:25;53001.97;;;-139.96;37.89
7906;BME280;13291;40.472;-3.878;2022-10-16T12:56:04;53026.00;;;-139.96;37.40
7906;BME280;13291;40.472;-3.878;2022-10-16T12:58:51;53026.00;;;-139.96;37.04
7906;BME280;13291;40.472;-3.878;2022-10-16T13:01:31;52997.97;;;-139.96;36.94
7906;BME280;13291;40.472;-3.878;2022-10-16T13:07:18;52985.97;;;-139.96;36.79